Time;durP1;ratioP1;P1;durP2;ratioP2;P2;SDS_P1;SDS_P2;PMS_P1;PMS_P2;Temp;Humidity;BMP_temperature;BMP_pressure;BME280_temperature;BME280_humidity;BME280_pressure;Samples;Min_cycle;Max_cycle;Signal;HPM_P1;HPM_P2
2023/07/16 00:02:04;;;;;;;0.00;0.00;;;17.90;72.40;;;;;;4952333;28;20051;-73
2023/07/16 00:04:31;;;;;;;0.00;0.00;;;17.90;72.40;;;;;;4969751;28;20089;-73
2023/07/16 00:06:56;;;;;;;0.10;0.10;;;18.00;72.30;;;;;;4952430;28;20050;-73
2023/07/16 00:09:22;;;;;;;0.05;0.05;;;18.00;72.30;;;;;;4980823;28;20568;-73
2023/07/16 00:11:47;;;;;;;0.13;0.13;;;17.90;72.20;;;;;;4970030;28;20497;-73
2023/07/16 00:14:13;;;;;;;0.00;0.00;;;17.80;72.10;;;;;;4969593;28;20356;-73
2023/07/16 00:16:39;;;;;;;0.00;0.00;;;17.80;72.10;;;;;;4968866;28;20490;-73
2023/07/16 00:19:04;;;;;;;0.00;0.00;;;17.70;72.20;;;;;;4969922;28;20046;-73
2023/07/16 00:21:30;;;;;;;0.00;0.00;;;17.60;72.50;;;;;;4942695;28;20093;-73
2023/07/16 00:23:56;;;;;;;0.40;0.40;;;17.50;72.50;;;;;;4966522;28;20133;-73
2023/07/16 00:26:22;;;;;;;0.00;0.00;;;17.40;72.90;;;;;;4971036;28;20047;-73
2023/07/16 00:28:47;;;;;;;0.32;0.32;;;17.30;73.20;;;;;;4966039;28;20130;-73
2023/07/16 00:31:14;;;;;;;0.00;0.00;;;17.20;73.50;;;;;;4950000;28;20046;-73
2023/07/16 00:33:39;;;;;;;0.00;0.00;;;17.10;73.60;;;;;;4967631;28;20042;-73
2023/07/16 00:36:05;;;;;;;0.00;0.00;;;17.10;73.90;;;;;;4967432;28;20474;-73
2023/07/16 00:38:31;;;;;;;0.00;0.00;;;17.10;73.90;;;;;;4949857;28;20053;-73
2023/07/16 00:40:56;;;;;;;0.00;0.00;;;17.10;74.00;;;;;;4964389;28;20101;-73
2023/07/16 00:43:22;;;;;;;0.00;0.00;;;17.00;74.60;;;;;;4971151;28;20046;-73
2023/07/16 00:45:49;;;;;;;0.00;0.00;;;17.00;74.50;;;;;;4950249;28;20039;-73
2023/07/16 00:48:14;;;;;;;0.00;0.00;;;17.00;74.70;;;;;;4937086;28;20047;-73
2023/07/16 00:50:41;;;;;;;0.00;0.00;;;17.00;74.40;;;;;;4971505;28;20042;-73
2023/07/16 00:53:08;;;;;;;0.03;0.03;;;17.00;74.80;;;;;;4972461;28;20058;-73
2023/07/16 00:55:35;;;;;;;0.28;0.28;;;17.00;74.90;;;;;;4972915;28;20057;-73
2023/07/16 00:58:05;;;;;;;0.00;0.00;;;17.00;74.90;;;;;;4972689;28;20129;-73
2023/07/16 01:00:40;;;;;;;0.00;0.00;;;17.00;74.90;;;;;;4970410;28;20427;-73
2023/07/16 01:03:09;;;;;;;0.00;0.00;;;17.00;75.10;;;;;;4955186;28;20106;-73
2023/07/16 01:05:59;;;;;;;0.00;0.00;;;17.00;75.80;;;;;;4972696;28;20502;-73
2023/07/16 01:08:32;;;;;;;0.00;0.00;;;17.00;75.20;;;;;;4972963;28;20063;-73
2023/07/16 01:10:59;;;;;;;0.00;0.00;;;17.00;75.40;;;;;;4955211;28;20059;-73
2023/07/16 01:13:26;;;;;;;0.17;0.17;;;17.00;75.50;;;;;;4969805;28;20058;-73
2023/07/16 01:15:52;;;;;;;0.47;0.30;;;17.00;76.10;;;;;;4992069;28;20054;-73
2023/07/16 01:18:17;;;;;;;0.00;0.00;;;17.00;76.30;;;;;;4971893;28;20053;-73
2023/07/16 01:20:43;;;;;;;0.00;0.00;;;17.00;76.10;;;;;;4955147;28;20051;-73
2023/07/16 01:23:37;;;;;;;0.20;0.20;;;17.00;76.20;;;;;;4961927;28;20047;-73
2023/07/16 01:26:39;;;;;;;0.00;0.00;;;17.00;76.40;;;;;;4954827;28;20059;-73
2023/07/16 01:29:26;;;;;;;0.00;0.00;;;17.00;76.70;;;;;;4952539;28;20038;-73
2023/07/16 01:31:54;;;;;;;0.00;0.00;;;17.00;76.40;;;;;;4953743;28;20444;-73
2023/07/16 01:34:20;;;;;;;0.00;0.00;;;17.00;76.40;;;;;;4955445;28;20054;-73
2023/07/16 01:36:46;;;;;;;0.00;0.00;;;17.00;76.10;;;;;;4971220;28;20054;-73
2023/07/16 01:39:12;;;;;;;0.00;0.00;;;17.00;76.70;;;;;;4953897;28;20069;-73
2023/07/16 01:41:38;;;;;;;0.00;0.00;;;17.00;76.50;;;;;;4954101;28;20046;-73
2023/07/16 01:44:03;;;;;;;0.00;0.00;;;17.00;76.30;;;;;;4971551;28;20054;-73
2023/07/16 01:46:29;;;;;;;0.00;0.00;;;17.00;76.50;;;;;;4969908;28;20066;-73
2023/07/16 01:48:55;;;;;;;0.43;0.20;;;17.00;76.60;;;;;;4969296;28;20039;-73
2023/07/16 01:51:20;;;;;;;0.00;0.00;;;17.00;76.40;;;;;;4954109;28;20057;-73
2023/07/16 01:53:46;;;;;;;0.25;0.25;;;17.00;76.00;;;;;;4956721;28;20209;-74
2023/07/16 01:56:12;;;;;;;0.00;0.00;;;17.00;75.90;;;;;;4954275;28;20166;-74
2023/07/16 01:58:38;;;;;;;0.00;0.00;;;17.00;75.70;;;;;;4970516;28;20042;-73
2023/07/16 02:01:03;;;;;;;0.85;0.45;;;17.10;75.50;;;;;;4971010;28;20116;-73
2023/07/16 02:03:29;;;;;;;0.98;0.22;;;17.10;75.70;;;;;;4960096;28;20054;-73
2023/07/16 02:05:54;;;;;;;0.00;0.00;;;17.10;75.80;;;;;;4971041;28;20360;-73
2023/07/16 02:08:20;;;;;;;0.10;0.10;;;17.10;75.60;;;;;;4959098;28;20563;-73
2023/07/16 02:10:49;;;;;;;0.10;0.10;;;17.10;75.60;;;;;;4971757;28;20291;-73
2023/07/16 02:13:15;;;;;;;0.13;0.13;;;17.10;75.60;;;;;;4970963;28;20055;-73
2023/07/16 02:15:40;;;;;;;0.00;0.00;;;17.10;75.60;;;;;;4971522;28;20390;-73
2023/07/16 02:18:06;;;;;;;0.00;0.00;;;17.10;75.30;;;;;;4971229;28;20038;-74
2023/07/16 02:20:32;;;;;;;0.00;0.00;;;17.10;75.60;;;;;;4971563;28;20050;-73
2023/07/16 02:22:58;;;;;;;1.35;1.10;;;17.10;76.00;;;;;;4970376;28;20459;-73
2023/07/16 02:25:23;;;;;;;0.00;0.00;;;17.10;75.80;;;;;;4970656;28;20108;-73
2023/07/16 02:27:49;;;;;;;0.03;0.03;;;17.10;75.80;;;;;;4970800;28;20136;-73
2023/07/16 02:30:15;;;;;;;0.00;0.00;;;17.10;76.10;;;;;;4970125;28;20415;-73
2023/07/16 02:32:41;;;;;;;0.00;0.00;;;17.20;76.40;;;;;;4969836;28;20435;-73
2023/07/16 02:35:07;;;;;;;1.10;0.73;;;17.30;76.50;;;;;;4953241;28;20050;-73
2023/07/16 02:37:33;;;;;;;0.00;0.00;;;17.40;76.40;;;;;;4972097;28;20481;-73
2023/07/16 02:39:59;;;;;;;0.30;0.30;;;17.40;76.50;;;;;;4978689;28;20050;-73
2023/07/16 02:42:25;;;;;;;0.10;0.10;;;17.50;76.30;;;;;;4968940;28;20062;-73
2023/07/16 02:44:50;;;;;;;0.52;0.52;;;17.50;76.00;;;;;;4969349;28;20049;-73
2023/07/16 02:47:16;;;;;;;0.00;0.00;;;17.60;75.60;;;;;;4972274;28;20547;-73
2023/07/16 02:49:42;;;;;;;0.00;0.00;;;17.60;75.70;;;;;;4971961;28;20053;-73
2023/07/16 02:52:07;;;;;;;0.32;0.32;;;17.60;75.40;;;;;;4951375;28;20169;-73
2023/07/16 02:54:35;;;;;;;0.05;0.05;;;17.60;75.60;;;;;;4970141;28;20053;-73
2023/07/16 02:57:00;;;;;;;0.00;0.00;;;17.60;76.20;;;;;;4971035;28;20086;-73
2023/07/16 02:59:26;;;;;;;0.00;0.00;;;17.60;75.70;;;;;;4952004;28;20093;-73
2023/07/16 03:01:52;;;;;;;0.00;0.00;;;17.60;75.80;;;;;;4969572;28;20039;-73
2023/07/16 03:04:17;;;;;;;0.00;0.00;;;17.60;75.40;;;;;;4969681;28;20061;-73
2023/07/16 03:06:43;;;;;;;0.00;0.00;;;17.60;75.70;;;;;;4953137;28;20070;-73
2023/07/16 03:09:09;;;;;;;0.00;0.00;;;17.60;76.00;;;;;;4960440;28;20070;-73
2023/07/16 03:11:34;;;;;;;0.00;0.00;;;17.60;75.80;;;;;;4952001;28;20051;-73
2023/07/16 03:14:00;;;;;;;0.00;0.00;;;17.70;75.90;;;;;;4968091;28;20061;-73
2023/07/16 03:16:25;;;;;;;0.00;0.00;;;17.70;75.80;;;;;;4970185;28;20046;-73
2023/07/16 03:18:51;;;;;;;0.00;0.00;;;17.70;75.20;;;;;;4970200;28;20043;-73
2023/07/16 03:21:16;;;;;;;0.00;0.00;;;17.80;75.60;;;;;;4952496;28;20093;-73
2023/07/16 03:23:42;;;;;;;0.00;0.00;;;17.80;75.60;;;;;;4952937;28;20054;-73
2023/07/16 03:26:08;;;;;;;0.00;0.00;;;17.80;75.40;;;;;;4970517;28;20054;-74
2023/07/16 03:28:33;;;;;;;0.10;0.10;;;17.80;75.80;;;;;;4970296;28;20474;-74
2023/07/16 03:30:59;;;;;;;0.00;0.00;;;17.80;75.70;;;;;;4968506;28;20451;-73
2023/07/16 03:33:24;;;;;;;0.00;0.00;;;17.80;75.40;;;;;;4951750;28;20140;-74
2023/07/16 03:35:50;;;;;;;0.22;0.22;;;17.80;75.30;;;;;;4971099;28;20504;-73
2023/07/16 03:38:16;;;;;;;0.08;0.08;;;17.80;75.70;;;;;;4969398;28;20043;-73
2023/07/16 03:40:48;;;;;;;0.00;0.00;;;17.70;75.80;;;;;;4968456;28;20038;-73
2023/07/16 03:43:14;;;;;;;0.75;0.55;;;17.80;75.40;;;;;;4951385;28;20466;-73
2023/07/16 03:45:40;;;;;;;2.00;0.70;;;17.80;75.50;;;;;;4983015;28;20046;-74
2023/07/16 03:48:06;;;;;;;0.55;0.55;;;17.80;75.40;;;;;;4980455;28;20045;-74
2023/07/16 03:50:31;;;;;;;0.00;0.00;;;17.80;76.00;;;;;;4970663;28;20055;-73
2023/07/16 03:52:57;;;;;;;0.10;0.10;;;17.80;76.10;;;;;;4969414;28;20121;-74
2023/07/16 03:55:23;;;;;;;0.00;0.00;;;17.90;76.10;;;;;;4952082;28;20398;-74
2023/07/16 03:57:48;;;;;;;0.15;0.15;;;17.90;75.90;;;;;;4968167;28;20575;-74
2023/07/16 04:00:14;;;;;;;0.38;0.38;;;17.80;76.10;;;;;;4968166;28;20413;-73
2023/07/16 04:02:39;;;;;;;0.00;0.00;;;17.90;76.00;;;;;;4951088;28;20050;-73
2023/07/16 04:05:05;;;;;;;0.00;0.00;;;17.80;76.00;;;;;;4973704;28;20042;-74
2023/07/16 04:07:31;;;;;;;0.00;0.00;;;17.80;76.00;;;;;;4976457;28;20061;-73
2023/07/16 04:09:57;;;;;;;0.00;0.00;;;17.80;76.20;;;;;;4968513;28;20488;-73
2023/07/16 04:12:22;;;;;;;0.10;0.10;;;17.80;76.10;;;;;;4950681;28;20043;-73
2023/07/16 04:14:48;;;;;;;0.05;0.05;;;17.90;75.30;;;;;;4967810;28;20043;-73
2023/07/16 04:17:13;;;;;;;0.90;0.70;;;17.80;75.40;;;;;;4971144;28;20078;-74
2023/07/16 04:19:39;;;;;;;0.05;0.05;;;17.90;75.40;;;;;;4951545;28;20043;-74
2023/07/16 04:22:05;;;;;;;0.10;0.10;;;17.90;75.50;;;;;;4951568;28;20043;-73
2023/07/16 04:24:31;;;;;;;0.32;0.32;;;18.00;75.40;;;;;;4955126;28;20046;-73
2023/07/16 04:26:58;;;;;;;0.10;0.10;;;17.80;75.90;;;;;;4977508;28;20031;-74
2023/07/16 04:29:24;;;;;;;0.32;0.32;;;18.00;75.80;;;;;;4954574;28;20130;-73
2023/07/16 04:31:50;;;;;;;0.73;0.73;;;18.00;75.90;;;;;;4955719;28;20473;-73
2023/07/16 04:34:16;;;;;;;0.00;0.00;;;17.80;76.90;;;;;;4955969;28;20486;-73
2023/07/16 04:36:42;;;;;;;0.57;0.57;;;17.80;77.30;;;;;;4973942;28;20054;-74
2023/07/16 04:39:08;;;;;;;0.10;0.10;;;17.70;77.40;;;;;;4955452;28;20515;-73
2023/07/16 04:41:34;;;;;;;0.00;0.00;;;17.70;77.30;;;;;;4955407;28;20051;-73
2023/07/16 04:43:59;;;;;;;0.00;0.00;;;17.70;77.10;;;;;;4954635;28;20063;-73
2023/07/16 04:46:25;;;;;;;0.00;0.00;;;17.80;76.60;;;;;;4956289;28;20057;-73
2023/07/16 04:48:50;;;;;;;0.00;0.00;;;17.70;76.60;;;;;;4955154;28;20061;-73
2023/07/16 04:51:16;;;;;;;0.00;0.00;;;17.70;76.90;;;;;;4954645;28;20126;-73
2023/07/16 04:53:42;;;;;;;5.82;2.63;;;17.80;76.70;;;;;;4972544;28;20046;-73
2023/07/16 04:56:15;;;;;;;0.00;0.00;;;17.80;76.60;;;;;;4955731;28;20048;-73
2023/07/16 04:58:41;;;;;;;0.25;0.25;;;17.80;76.40;;;;;;4955217;28;20110;-73
2023/07/16 05:01:08;;;;;;;0.00;0.00;;;17.80;76.50;;;;;;4954869;28;20070;-73
2023/07/16 05:03:34;;;;;;;0.00;0.00;;;17.80;77.00;;;;;;4970798;28;20057;-73
2023/07/16 05:06:00;;;;;;;0.00;0.00;;;17.80;77.20;;;;;;4954550;28;20055;-73
2023/07/16 05:08:26;;;;;;;5.10;0.95;;;17.90;78.10;;;;;;4955970;28;20073;-73
2023/07/16 05:10:51;;;;;;;0.00;0.00;;;17.80;80.40;;;;;;4955566;28;20049;-73
2023/07/16 05:13:17;;;;;;;0.00;0.00;;;17.50;81.00;;;;;;4969770;28;20078;-73
2023/07/16 05:15:46;;;;;;;0.00;0.00;;;17.30;81.50;;;;;;4971827;28;20071;-73
2023/07/16 05:18:11;;;;;;;0.57;0.25;;;17.20;81.80;;;;;;4965033;28;20043;-73
2023/07/16 05:20:37;;;;;;;0.00;0.00;;;17.10;82.90;;;;;;4948826;28;20046;-74
2023/07/16 05:23:03;;;;;;;0.10;0.10;;;17.10;82.60;;;;;;4956285;28;20613;-73
2023/07/16 05:25:28;;;;;;;0.00;0.00;;;17.10;82.80;;;;;;4980067;28;20423;-73
2023/07/16 05:27:54;;;;;;;0.00;0.00;;;17.10;82.60;;;;;;4940315;28;20081;-73
2023/07/16 05:30:20;;;;;;;0.00;0.00;;;17.10;83.50;;;;;;4954560;28;20520;-73
2023/07/16 05:32:45;;;;;;;0.45;0.45;;;17.10;83.20;;;;;;4970927;28;20043;-73
2023/07/16 05:35:11;;;;;;;0.22;0.22;;;17.10;82.60;;;;;;4954226;28;20039;-73
2023/07/16 05:37:36;;;;;;;0.00;0.00;;;17.10;82.20;;;;;;4954122;28;20086;-74
2023/07/16 05:40:03;;;;;;;0.25;0.25;;;17.20;82.30;;;;;;4970785;28;20483;-73
2023/07/16 05:42:29;;;;;;;0.35;0.35;;;17.20;82.60;;;;;;4952373;28;20090;-73
2023/07/16 05:44:54;;;;;;;0.00;0.00;;;17.30;82.80;;;;;;4953679;28;20617;-73
2023/07/16 05:47:20;;;;;;;0.00;0.00;;;17.40;82.90;;;;;;4970987;28;20046;-73
2023/07/16 05:49:46;;;;;;;0.00;0.00;;;17.50;82.70;;;;;;4954174;28;20507;-73
2023/07/16 05:52:11;;;;;;;0.55;0.55;;;17.50;82.20;;;;;;4954411;28;20074;-73
2023/07/16 05:54:37;;;;;;;0.00;0.00;;;17.60;82.00;;;;;;4953399;28;20499;-73
2023/07/16 05:57:03;;;;;;;0.00;0.00;;;17.60;81.90;;;;;;4970056;28;20069;-73
2023/07/16 05:59:28;;;;;;;0.10;0.10;;;17.60;81.40;;;;;;4952212;28;20047;-73
2023/07/16 06:01:54;;;;;;;0.10;0.10;;;17.40;81.90;;;;;;4970822;28;20043;-74
2023/07/16 06:04:19;;;;;;;0.35;0.35;;;17.30;82.40;;;;;;4970530;28;20077;-73
2023/07/16 06:06:45;;;;;;;0.30;0.30;;;17.20;82.50;;;;;;4969483;28;20113;-73
2023/07/16 06:09:12;;;;;;;0.00;0.00;;;17.10;83.20;;;;;;4971938;28;20146;-73
2023/07/16 06:11:37;;;;;;;0.00;0.00;;;17.10;83.20;;;;;;4971377;28;20689;-73
2023/07/16 06:14:03;;;;;;;0.00;0.00;;;17.20;83.50;;;;;;4952314;28;20051;-77
2023/07/16 06:16:28;;;;;;;0.00;0.00;;;17.30;83.20;;;;;;4948785;28;20058;-74
2023/07/16 06:18:54;;;;;;;0.22;0.22;;;17.40;82.80;;;;;;4968868;28;20802;-72
2023/07/16 06:21:19;;;;;;;0.10;0.10;;;17.40;82.30;;;;;;4950838;28;20134;-73
2023/07/16 06:23:45;;;;;;;0.00;0.00;;;17.50;82.30;;;;;;4953350;28;20067;-74
2023/07/16 06:26:11;;;;;;;0.10;0.10;;;17.60;82.00;;;;;;4969015;28;20054;-73
2023/07/16 06:28:36;;;;;;;0.00;0.00;;;17.60;81.30;;;;;;4966455;28;20504;-74
2023/07/16 06:31:02;;;;;;;0.03;0.03;;;17.70;80.80;;;;;;4965844;28;20036;-74
2023/07/16 06:33:30;;;;;;;0.30;0.30;;;17.70;80.70;;;;;;4949502;28;20113;-73
2023/07/16 06:35:56;;;;;;;0.22;0.22;;;17.70;81.00;;;;;;4968896;28;20063;-73
2023/07/16 06:38:21;;;;;;;0.00;0.00;;;17.70;80.60;;;;;;4935911;28;20058;-74
2023/07/16 06:40:51;;;;;;;1.02;0.70;;;17.80;79.70;;;;;;4953144;28;20049;-73
2023/07/16 06:43:17;;;;;;;0.10;0.10;;;17.90;79.00;;;;;;4967464;28;20042;-74
2023/07/16 06:45:44;;;;;;;0.00;0.00;;;17.90;79.40;;;;;;4968191;28;20389;-73
2023/07/16 06:48:09;;;;;;;0.00;0.00;;;18.00;79.30;;;;;;4951646;28;20074;-73
2023/07/16 06:50:35;;;;;;;0.00;0.00;;;18.00;78.90;;;;;;4968698;28;20634;-72
2023/07/16 06:53:01;;;;;;;1.08;0.55;;;18.00;78.30;;;;;;4969868;28;20495;-75
2023/07/16 06:55:26;;;;;;;0.10;0.10;;;18.10;78.20;;;;;;4969249;28;20149;-74
2023/07/16 06:57:52;;;;;;;0.10;0.10;;;18.10;77.90;;;;;;4967892;28;20488;-74
2023/07/16 07:00:18;;;;;;;0.00;0.00;;;18.10;78.00;;;;;;4968130;28;20065;-74
2023/07/16 07:02:44;;;;;;;3.75;1.38;;;18.10;78.00;;;;;;4963589;28;20039;-74
2023/07/16 07:05:09;;;;;;;0.00;0.00;;;18.10;78.00;;;;;;4950891;28;20535;-74
2023/07/16 07:07:35;;;;;;;0.73;0.73;;;18.20;77.60;;;;;;4968311;28;20063;-74
2023/07/16 07:10:01;;;;;;;0.00;0.00;;;18.20;77.50;;;;;;4965229;28;20051;-74
2023/07/16 07:12:27;;;;;;;0.00;0.00;;;18.30;77.80;;;;;;4952061;28;20087;-72
2023/07/16 07:14:52;;;;;;;1.15;0.28;;;18.40;76.90;;;;;;4955848;28;20478;-73
2023/07/16 07:17:18;;;;;;;0.00;0.00;;;18.50;76.60;;;;;;4950534;28;20046;-74
2023/07/16 07:19:44;;;;;;;0.00;0.00;;;18.50;76.60;;;;;;4967097;28;20055;-74
2023/07/16 07:22:10;;;;;;;0.10;0.10;;;18.50;76.30;;;;;;4955544;28;20412;-73
2023/07/16 07:24:35;;;;;;;0.00;0.00;;;18.60;75.80;;;;;;4967843;28;20071;-74
2023/07/16 07:27:01;;;;;;;0.20;0.20;;;18.60;75.20;;;;;;4967518;28;20034;-77
2023/07/16 07:29:27;;;;;;;0.00;0.00;;;18.50;75.80;;;;;;4967518;28;20065;-72
2023/07/16 07:31:52;;;;;;;0.00;0.00;;;18.50;76.70;;;;;;4965004;28;20050;-71
2023/07/16 07:34:18;;;;;;;0.30;0.30;;;18.40;76.60;;;;;;4966945;28;20082;-73
2023/07/16 07:36:44;;;;;;;0.20;0.20;;;18.50;76.50;;;;;;4969181;28;20121;-68
2023/07/16 07:39:10;;;;;;;0.10;0.10;;;18.40;76.00;;;;;;4969070;28;20254;-69
2023/07/16 07:41:35;;;;;;;0.00;0.00;;;18.30;76.10;;;;;;4967508;28;20050;-69
2023/07/16 07:44:01;;;;;;;0.10;0.10;;;18.40;76.50;;;;;;4969121;28;20115;-68
2023/07/16 07:46:26;;;;;;;1.00;0.30;;;18.30;77.20;;;;;;4967431;28;20086;-69
2023/07/16 07:48:52;;;;;;;0.00;0.00;;;18.30;77.10;;;;;;4969385;28;20077;-69
2023/07/16 07:51:18;;;;;;;0.08;0.08;;;18.40;77.10;;;;;;4968712;28;20042;-69
2023/07/16 07:53:43;;;;;;;0.00;0.00;;;18.50;76.60;;;;;;4969613;28;20094;-69
2023/07/16 07:56:09;;;;;;;0.10;0.10;;;18.60;76.50;;;;;;4968235;28;20516;-69
2023/07/16 07:58:34;;;;;;;0.10;0.10;;;18.70;76.40;;;;;;4973518;28;20051;-69
2023/07/16 08:01:07;;;;;;;0.00;0.00;;;18.80;76.50;;;;;;4954630;28;20435;-70
2023/07/16 08:03:33;;;;;;;0.00;0.00;;;18.80;76.00;;;;;;4972109;28;20122;-69
2023/07/16 08:05:59;;;;;;;0.00;0.00;;;18.90;76.50;;;;;;4972646;28;20463;-69
2023/07/16 08:08:24;;;;;;;0.15;0.15;;;18.90;75.80;;;;;;4971888;28;20063;-69
2023/07/16 08:10:50;;;;;;;0.00;0.00;;;18.90;75.30;;;;;;4967638;28;20047;-69
2023/07/16 08:13:15;;;;;;;0.47;0.35;;;19.00;75.40;;;;;;4969450;28;20054;-69
2023/07/16 08:15:41;;;;;;;0.00;0.00;;;19.00;76.00;;;;;;4961707;28;20101;-68
2023/07/16 08:18:07;;;;;;;0.00;0.00;;;19.10;75.30;;;;;;4970384;28;20073;-68
2023/07/16 08:20:32;;;;;;;0.00;0.00;;;19.10;75.50;;;;;;4963632;28;20059;-68
2023/07/16 08:22:58;;;;;;;0.00;0.00;;;19.10;74.00;;;;;;4965834;28;20467;-69
2023/07/16 08:25:24;;;;;;;0.00;0.00;;;19.10;74.30;;;;;;4968838;28;20063;-69
2023/07/16 08:27:49;;;;;;;0.00;0.00;;;19.30;73.70;;;;;;4969156;28;20053;-69
2023/07/16 08:30:15;;;;;;;0.22;0.22;;;19.20;74.10;;;;;;4970748;28;20058;-69
2023/07/16 08:32:41;;;;;;;0.00;0.00;;;19.30;73.10;;;;;;4968349;28;20081;-69
2023/07/16 08:35:07;;;;;;;0.00;0.00;;;19.30;73.40;;;;;;4960970;28;20051;-69
2023/07/16 08:37:32;;;;;;;0.05;0.05;;;19.30;72.80;;;;;;4963709;28;20054;-69
2023/07/16 08:39:58;;;;;;;0.00;0.00;;;19.30;72.70;;;;;;4968298;28;20117;-69
2023/07/16 08:42:24;;;;;;;0.00;0.00;;;19.30;71.30;;;;;;4970010;28;20555;-70
2023/07/16 08:44:52;;;;;;;0.00;0.00;;;19.40;72.50;;;;;;4970848;28;20051;-71
2023/07/16 08:47:18;;;;;;;0.40;0.40;;;19.40;72.10;;;;;;4966183;28;20090;-70
2023/07/16 08:49:55;;;;;;;0.13;0.05;;;19.40;71.60;;;;;;4972667;28;20479;-70
2023/07/16 08:52:20;;;;;;;0.00;0.00;;;19.30;72.30;;;;;;4958271;28;20129;-70
2023/07/16 08:54:46;;;;;;;0.00;0.00;;;19.20;72.30;;;;;;4973117;28;20411;-72
2023/07/16 08:57:13;;;;;;;0.00;0.00;;;19.10;73.50;;;;;;4972739;28;20046;-73
2023/07/16 08:59:39;;;;;;;0.00;0.00;;;19.20;74.20;;;;;;4954335;28;20060;-73
2023/07/16 09:02:05;;;;;;;0.00;0.00;;;19.20;74.60;;;;;;4973803;28;20522;-73
2023/07/16 09:04:32;;;;;;;0.57;0.57;;;19.30;74.30;;;;;;4953965;28;20500;-72
2023/07/16 09:06:58;;;;;;;0.00;0.00;;;19.30;74.70;;;;;;4971933;28;20202;-72
2023/07/16 09:09:23;;;;;;;0.10;0.10;;;19.40;73.50;;;;;;4970542;28;20141;-72
2023/07/16 09:11:49;;;;;;;0.35;0.25;;;19.50;72.40;;;;;;4973620;28;20086;-72
2023/07/16 09:14:18;;;;;;;0.00;0.00;;;19.70;72.30;;;;;;4955031;28;20050;-71
2023/07/16 09:16:51;;;;;;;6.07;1.45;;;19.70;71.90;;;;;;4963995;28;20039;-72
2023/07/16 09:19:18;;;;;;;0.00;0.00;;;19.70;71.80;;;;;;4952982;28;20066;-72
2023/07/16 09:21:51;;;;;;;0.95;0.88;;;19.60;71.70;;;;;;4973312;28;20059;-75
2023/07/16 09:24:17;;;;;;;0.10;0.10;;;19.60;71.50;;;;;;4970993;28;20078;-74
2023/07/16 09:26:53;;;;;;;0.00;0.00;;;19.60;71.20;;;;;;4952420;28;20045;-77
2023/07/16 09:29:19;;;;;;;1.80;1.23;;;19.60;70.40;;;;;;4967899;28;20038;-77
2023/07/16 09:32:07;;;;;;;0.00;0.00;;;19.70;70.10;;;;;;4957997;28;20043;-77
2023/07/16 09:34:33;;;;;;;0.10;0.10;;;19.80;70.00;;;;;;4955377;28;20047;-77
2023/07/16 09:37:00;;;;;;;0.00;0.00;;;19.80;70.30;;;;;;4955442;28;20057;-77
2023/07/16 09:39:27;;;;;;;0.55;0.52;;;19.80;70.00;;;;;;4969409;28;20043;-70
2023/07/16 09:41:53;;;;;;;0.00;0.00;;;19.70;69.70;;;;;;4969601;28;20393;-71
2023/07/16 09:44:19;;;;;;;0.00;0.00;;;19.70;70.30;;;;;;4969211;28;20058;-74
2023/07/16 09:46:46;;;;;;;0.08;0.08;;;19.70;70.20;;;;;;4969712;28;20043;-73
2023/07/16 09:49:14;;;;;;;0.00;0.00;;;19.70;69.90;;;;;;4970590;28;20490;-73
2023/07/16 09:51:39;;;;;;;0.00;0.00;;;19.70;70.30;;;;;;4971183;28;20057;-73
2023/07/16 09:54:06;;;;;;;0.00;0.00;;;19.90;70.70;;;;;;4970500;28;20047;-73
2023/07/16 09:56:41;;;;;;;0.00;0.00;;;20.00;69.90;;;;;;4969190;28;20043;-73
2023/07/16 09:59:11;;;;;;;0.00;0.00;;;20.00;68.50;;;;;;4934835;28;20051;-72
2023/07/16 10:01:40;;;;;;;0.70;0.70;;;19.90;67.70;;;;;;4968665;28;20050;-80
2023/07/16 10:04:19;;;;;;;0.28;0.28;;;19.90;68.30;;;;;;4970462;28;20117;-79
2023/07/16 10:06:56;;;;;;;1.02;0.50;;;19.90;68.30;;;;;;4967953;28;20058;-68
2023/07/16 10:09:41;;;;;;;0.00;0.00;;;19.80;68.10;;;;;;4969828;28;20066;-75
2023/07/16 10:12:18;;;;;;;0.05;0.05;;;19.70;68.10;;;;;;4970638;28;20050;-73
2023/07/16 10:14:50;;;;;;;0.10;0.10;;;19.60;67.40;;;;;;4969166;28;20050;-73
2023/07/16 10:17:26;;;;;;;0.00;0.00;;;19.70;67.90;;;;;;4970011;28;20141;-72
2023/07/16 10:19:59;;;;;;;0.00;0.00;;;19.80;67.80;;;;;;4968191;28;20042;-72
2023/07/16 10:22:42;;;;;;;0.00;0.00;;;19.90;68.30;;;;;;4969850;28;20039;-73
2023/07/16 10:25:17;;;;;;;0.00;0.00;;;20.00;67.90;;;;;;4973810;28;20055;-72
2023/07/16 10:27:44;;;;;;;0.00;0.00;;;20.10;67.90;;;;;;4967228;28;20118;-73
2023/07/16 10:30:11;;;;;;;0.52;0.52;;;20.10;67.40;;;;;;4966699;28;20142;-70
2023/07/16 10:32:37;;;;;;;0.00;0.00;;;20.10;66.30;;;;;;4969221;28;20035;-73
2023/07/16 10:35:05;;;;;;;0.00;0.00;;;20.00;67.00;;;;;;4969567;28;21422;-72
2023/07/16 10:37:31;;;;;;;0.10;0.10;;;20.10;67.40;;;;;;4969357;28;20101;-72
2023/07/16 10:39:58;;;;;;;0.35;0.35;;;20.20;66.40;;;;;;4937114;28;20051;-73
2023/07/16 10:42:25;;;;;;;16.85;1.35;;;20.20;65.80;;;;;;4970196;28;20050;-72
2023/07/16 10:44:53;;;;;;;0.00;0.00;;;20.20;65.80;;;;;;4957062;28;20055;-72
2023/07/16 10:47:40;;;;;;;0.90;0.75;;;20.20;66.00;;;;;;4969925;28;20097;-71
2023/07/16 10:50:08;;;;;;;0.00;0.00;;;20.30;66.30;;;;;;4942474;28;20051;-73
2023/07/16 10:52:34;;;;;;;0.08;0.08;;;20.30;64.70;;;;;;4936457;28;20051;-72
2023/07/16 10:55:00;;;;;;;6.75;1.45;;;20.30;65.70;;;;;;4953498;28;20047;-66
2023/07/16 10:57:27;;;;;;;0.00;0.00;;;20.40;66.40;;;;;;4965028;28;20043;-75
2023/07/16 10:59:53;;;;;;;0.47;0.47;;;20.60;65.00;;;;;;4963342;28;20184;-74
2023/07/16 11:02:21;;;;;;;0.00;0.00;;;20.60;62.90;;;;;;4958091;28;20799;-74
2023/07/16 11:04:48;;;;;;;0.00;0.00;;;20.40;62.40;;;;;;4961366;28;20062;-74
2023/07/16 11:07:15;;;;;;;0.00;0.00;;;20.40;63.00;;;;;;4968767;28;20466;-73
2023/07/16 11:09:48;;;;;;;0.00;0.00;;;20.40;62.80;;;;;;4965417;28;20051;-75
2023/07/16 11:12:19;;;;;;;0.00;0.00;;;20.40;62.20;;;;;;4970373;28;20047;-73
2023/07/16 11:14:47;;;;;;;16.57;1.93;;;20.30;63.20;;;;;;4966397;28;20035;-74
2023/07/16 11:17:13;;;;;;;0.63;0.63;;;20.30;63.30;;;;;;4963384;28;20049;-74
2023/07/16 11:19:42;;;;;;;0.00;0.00;;;20.30;63.40;;;;;;4967806;28;20535;-73
2023/07/16 11:22:09;;;;;;;0.00;0.00;;;20.20;63.40;;;;;;4967933;28;20508;-73
2023/07/16 11:24:41;;;;;;;1.08;0.80;;;20.20;63.00;;;;;;4965424;28;20480;-73
2023/07/16 11:27:16;;;;;;;0.00;0.00;;;20.20;64.10;;;;;;4969772;28;20043;-71
2023/07/16 11:29:49;;;;;;;0.00;0.00;;;20.10;65.20;;;;;;4980348;28;20048;-71
2023/07/16 11:32:27;;;;;;;0.00;0.00;;;20.30;65.40;;;;;;4973145;28;20101;-72
2023/07/16 11:34:57;;;;;;;0.00;0.00;;;20.50;64.00;;;;;;4953106;28;20150;-72
2023/07/16 11:37:25;;;;;;;0.47;0.15;;;20.50;63.80;;;;;;4966032;28;20046;-72
2023/07/16 11:39:54;;;;;;;1.17;1.08;;;20.30;64.50;;;;;;4967998;28;20042;-71
2023/07/16 11:42:39;;;;;;;0.88;0.65;;;20.20;64.70;;;;;;4961903;28;20043;-72
2023/07/16 11:45:19;;;;;;;0.43;0.43;;;20.20;65.00;;;;;;4958233;28;20101;-71
2023/07/16 11:47:44;;;;;;;0.13;0.13;;;20.20;65.20;;;;;;4964273;28;20054;-70
2023/07/16 11:50:10;;;;;;;0.00;0.00;;;20.40;65.50;;;;;;4960514;28;20043;-70
2023/07/16 11:52:36;;;;;;;0.00;0.00;;;20.50;65.70;;;;;;4957354;28;20126;-71
2023/07/16 11:55:04;;;;;;;0.00;0.00;;;20.50;65.40;;;;;;4964192;28;20039;-71
2023/07/16 11:57:30;;;;;;;0.00;0.00;;;20.60;65.60;;;;;;4964105;28;20053;-71
2023/07/16 11:59:56;;;;;;;0.00;0.00;;;20.50;66.80;;;;;;4965009;28;20039;-70
2023/07/16 12:02:22;;;;;;;0.00;0.00;;;20.50;66.50;;;;;;4952866;28;20125;-71
2023/07/16 12:04:48;;;;;;;0.22;0.15;;;20.40;67.20;;;;;;4967632;28;20047;-72
2023/07/16 12:07:14;;;;;;;0.20;0.20;;;20.30;67.80;;;;;;4962547;28;20066;-71
2023/07/16 12:09:40;;;;;;;0.00;0.00;;;20.30;68.00;;;;;;4968146;28;20449;-71
2023/07/16 12:12:06;;;;;;;1.00;0.90;;;20.30;69.10;;;;;;4957627;28;20487;-71
2023/07/16 12:14:32;;;;;;;0.17;0.17;;;20.30;69.30;;;;;;4918244;28;20516;-70
2023/07/16 12:16:58;;;;;;;0.03;0.03;;;20.30;69.40;;;;;;4960759;28;20040;-72
2023/07/16 12:19:24;;;;;;;1.13;1.00;;;20.10;66.90;;;;;;4952819;28;20047;-71
2023/07/16 12:21:50;;;;;;;0.00;0.00;;;20.20;67.80;;;;;;4963250;28;20050;-69
2023/07/16 12:24:16;;;;;;;0.00;0.00;;;20.30;67.40;;;;;;4964172;28;20408;-71
2023/07/16 12:26:41;;;;;;;0.75;0.30;;;20.30;67.00;;;;;;4963809;28;20122;-71
2023/07/16 12:29:07;;;;;;;0.88;0.85;;;20.30;68.40;;;;;;4968451;28;20034;-73
2023/07/16 12:31:33;;;;;;;0.28;0.28;;;20.50;67.20;;;;;;4969045;28;20047;-72
2023/07/16 12:33:59;;;;;;;0.00;0.00;;;20.70;66.40;;;;;;4951626;28;20502;-71
2023/07/16 12:36:25;;;;;;;1.55;0.90;;;20.90;66.20;;;;;;4951420;28;20050;-71
2023/07/16 12:38:51;;;;;;;0.00;0.00;;;20.90;63.90;;;;;;4969440;28;20538;-70
2023/07/16 12:41:16;;;;;;;0.40;0.40;;;20.80;61.80;;;;;;4950422;28;20047;-71
2023/07/16 12:43:42;;;;;;;0.95;0.88;;;20.70;62.90;;;;;;4967881;28;20487;-73
2023/07/16 12:46:08;;;;;;;0.35;0.35;;;20.60;62.00;;;;;;4968385;28;20097;-71
2023/07/16 12:48:34;;;;;;;0.82;0.82;;;20.50;61.30;;;;;;4969932;28;20092;-71